Time;durP1;ratioP1;P1;durP2;ratioP2;P2;SDS_P1;SDS_P2;PMS_P1;PMS_P2;Temp;Humidity;BMP_temperature;BMP_pressure;BME280_temperature;BME280_humidity;BME280_pressure;Samples;Min_cycle;Max_cycle;Signal;HPM_P1;HPM_P2
2023/04/05 03:02:39;;;;;;;14.68;6.47;;;1.10;99.90;;;;;;6275159;22;20052;-75
2023/04/05 03:05:06;;;;;;;11.70;6.03;;;1.00;99.90;;;;;;6274938;22;20048;-76
2023/04/05 03:07:32;;;;;;;12.32;5.93;;;1.00;99.90;;;;;;6277214;22;20027;-76
2023/04/05 03:09:58;;;;;;;13.43;6.60;;;1.00;99.90;;;;;;6274980;22;20016;-75
2023/04/05 03:12:24;;;;;;;12.00;6.05;;;1.00;99.90;;;;;;6276138;22;20463;-75
2023/04/05 03:14:49;;;;;;;15.80;6.88;;;1.00;99.90;;;;;;6274875;22;20086;-76
2023/04/05 03:17:15;;;;;;;16.50;7.22;;;1.00;99.90;;;;;;6274849;22;20015;-76
2023/04/05 03:19:41;;;;;;;13.35;6.43;;;1.00;99.90;;;;;;6275222;22;20412;-76
2023/04/05 03:22:07;;;;;;;12.35;6.80;;;1.00;99.90;;;;;;6274419;22;20310;-75
2023/04/05 03:24:33;;;;;;;11.55;5.88;;;0.90;99.90;;;;;;6276926;22;20372;-75
2023/04/05 03:27:03;;;;;;;13.20;6.78;;;0.90;99.90;;;;;;6274790;22;20019;-76
2023/04/05 03:29:29;;;;;;;15.48;6.85;;;0.90;99.90;;;;;;6275179;22;20031;-75
2023/04/05 03:31:56;;;;;;;12.82;5.95;;;0.90;99.90;;;;;;6276637;22;20130;-76
2023/04/05 03:34:27;;;;;;;11.40;5.88;;;0.80;99.90;;;;;;6276764;22;20372;-76
2023/04/05 03:36:53;;;;;;;13.27;6.18;;;0.80;99.90;;;;;;6276211;22;20015;-75
2023/04/05 03:39:19;;;;;;;15.18;5.93;;;0.80;99.90;;;;;;6278249;22;20011;-75
2023/04/05 03:41:44;;;;;;;13.27;6.32;;;0.70;99.90;;;;;;6278078;22;20043;-76
2023/04/05 03:44:10;;;;;;;13.15;6.43;;;0.70;99.90;;;;;;6278557;22;20012;-75
2023/04/05 03:46:36;;;;;;;10.60;5.40;;;0.60;99.90;;;;;;6276863;22;20019;-75
2023/04/05 03:49:02;;;;;;;12.63;5.57;;;0.60;99.90;;;;;;6278942;22;20433;-76
2023/04/05 03:51:28;;;;;;;12.43;7.05;;;0.50;99.90;;;;;;6251171;22;20457;-76
2023/04/05 03:53:54;;;;;;;14.82;6.60;;;0.50;99.90;;;;;;6276818;22;20026;-76
2023/04/05 03:56:21;;;;;;;13.27;6.60;;;0.50;99.90;;;;;;6279205;22;20011;-76
2023/04/05 03:58:46;;;;;;;19.75;8.15;;;0.50;99.90;;;;;;6278851;22;20060;-76
2023/04/05 04:01:12;;;;;;;12.10;6.85;;;0.50;99.90;;;;;;6250931;22;20091;-75
2023/04/05 04:03:38;;;;;;;13.93;6.43;;;0.50;99.90;;;;;;6278232;22;20029;-75
2023/04/05 04:06:05;;;;;;;14.20;6.05;;;0.50;99.90;;;;;;6276565;22;20019;-76
2023/04/05 04:08:31;;;;;;;18.73;6.85;;;0.50;99.90;;;;;;6251271;22;20012;-76
2023/04/05 04:10:56;;;;;;;14.23;6.00;;;0.50;99.90;;;;;;6276484;22;20020;-76
2023/04/05 04:13:22;;;;;;;13.05;6.78;;;0.50;99.90;;;;;;6278146;22;20007;-77
2023/04/05 04:15:48;;;;;;;16.27;6.80;;;0.50;99.90;;;;;;6251348;22;20429;-76
2023/04/05 04:18:13;;;;;;;12.32;6.53;;;0.50;99.90;;;;;;6276468;22;20057;-76
2023/04/05 04:20:40;;;;;;;13.15;6.80;;;0.50;99.90;;;;;;6278635;22;20069;-75
2023/04/05 04:23:09;;;;;;;13.05;6.13;;;0.50;99.90;;;;;;6278762;22;20012;-75
2023/04/05 04:25:37;;;;;;;15.20;6.28;;;0.50;99.90;;;;;;6276440;22;20011;-75
2023/04/05 04:28:08;;;;;;;12.70;6.38;;;0.50;99.90;;;;;;6276427;22;20506;-76
2023/04/05 04:30:34;;;;;;;15.30;6.43;;;0.50;99.90;;;;;;6251039;22;20019;-76
2023/04/05 04:33:03;;;;;;;12.15;5.95;;;0.40;99.90;;;;;;6276196;22;20133;-75
2023/04/05 04:35:32;;;;;;;16.08;7.10;;;0.40;99.90;;;;;;6277588;22;20011;-74
2023/04/05 04:38:01;;;;;;;13.35;6.97;;;0.40;99.90;;;;;;6276844;22;20015;-76
2023/04/05 04:40:38;;;;;;;16.13;7.03;;;0.40;99.90;;;;;;6276482;22;20053;-75
2023/04/05 04:43:09;;;;;;;14.57;6.25;;;0.30;99.90;;;;;;6277537;22;20073;-75
2023/04/05 04:45:36;;;;;;;15.52;6.85;;;0.30;99.90;;;;;;6277398;22;20030;-76
2023/04/05 04:48:03;;;;;;;16.98;7.20;;;0.30;99.90;;;;;;6276141;22;20019;-76
2023/04/05 04:50:31;;;;;;;13.30;7.28;;;0.30;99.90;;;;;;6276141;22;20153;-76
2023/04/05 04:53:00;;;;;;;12.73;6.28;;;0.30;99.90;;;;;;6276965;22;20016;-76
2023/04/05 04:55:27;;;;;;;15.00;7.07;;;0.20;99.90;;;;;;6276417;22;20043;-77
2023/04/05 04:57:54;;;;;;;12.23;6.32;;;0.20;99.90;;;;;;6281539;22;20038;-75
2023/04/05 05:00:21;;;;;;;15.07;6.93;;;0.20;99.90;;;;;;6283113;22;20008;-74
2023/04/05 05:02:47;;;;;;;12.80;7.00;;;0.20;99.90;;;;;;6279377;22;20010;-77
2023/04/05 05:05:13;;;;;;;14.95;7.30;;;0.10;99.90;;;;;;6276065;22;20353;-74
2023/04/05 05:07:43;;;;;;;16.70;7.35;;;0.10;99.90;;;;;;6276071;22;20314;-76
2023/04/05 05:10:10;;;;;;;17.90;6.90;;;0.10;99.90;;;;;;6277185;22;20020;-76
2023/04/05 05:12:39;;;;;;;17.05;7.82;;;0.10;99.90;;;;;;6276169;22;20019;-75
2023/04/05 05:15:05;;;;;;;19.23;7.65;;;0.10;99.90;;;;;;6250747;22;20086;-78
2023/04/05 05:17:31;;;;;;;19.00;6.47;;;0.10;99.90;;;;;;6277722;22;20039;-75
2023/04/05 05:19:59;;;;;;;15.10;6.90;;;0.10;99.90;;;;;;6277609;22;20336;-76
2023/04/05 05:22:26;;;;;;;11.07;5.95;;;0.10;99.90;;;;;;6250027;22;20043;-76
2023/04/05 05:24:51;;;;;;;14.70;6.78;;;0.10;99.90;;;;;;6277808;22;20015;-77
2023/04/05 05:27:17;;;;;;;16.13;6.93;;;0.10;99.90;;;;;;6275932;22;20012;-78
2023/04/05 05:29:43;;;;;;;15.77;8.00;;;0.10;99.90;;;;;;6276123;22;20476;-76
2023/04/05 05:32:13;;;;;;;20.67;8.82;;;0.10;99.90;;;;;;6275577;22;20015;-77
2023/04/05 05:34:39;;;;;;;20.98;8.50;;;0.10;99.90;;;;;;6277763;22;20012;-77
2023/04/05 05:37:05;;;;;;;17.98;7.68;;;0.10;99.90;;;;;;6275318;22;20039;-76
2023/04/05 05:39:31;;;;;;;19.17;7.30;;;0.10;99.90;;;;;;6275785;22;20016;-77
2023/04/05 05:41:56;;;;;;;12.38;6.35;;;0.20;99.90;;;;;;6275861;22;20464;-77
2023/04/05 05:44:22;;;;;;;18.38;7.35;;;0.10;99.90;;;;;;6275640;22;20051;-76
2023/04/05 05:46:48;;;;;;;15.05;7.25;;;0.10;99.90;;;;;;6275873;22;20007;-76
2023/04/05 05:49:13;;;;;;;14.18;7.10;;;0.10;99.90;;;;;;6275809;22;20019;-77
2023/04/05 05:51:39;;;;;;;18.60;8.30;;;0.10;99.90;;;;;;6277764;22;20086;-76
2023/04/05 05:54:05;;;;;;;19.33;7.95;;;0.10;99.90;;;;;;6276025;22;20012;-76
2023/04/05 05:56:30;;;;;;;17.00;8.05;;;0.10;99.90;;;;;;6275835;22;20039;-76
2023/04/05 05:58:58;;;;;;;18.33;8.10;;;0.10;99.90;;;;;;6277383;22;20008;-76
2023/04/05 06:01:26;;;;;;;17.77;8.10;;;0.20;99.90;;;;;;6249305;22;20457;-76
2023/04/05 06:03:53;;;;;;;16.13;8.60;;;0.20;99.90;;;;;;6275530;22;20015;-77
2023/04/05 06:06:19;;;;;;;17.60;8.30;;;0.20;99.90;;;;;;6249178;22;20503;-77
2023/04/05 06:08:46;;;;;;;18.40;7.50;;;0.20;99.90;;;;;;6274379;22;20061;-77
2023/04/05 06:11:20;;;;;;;16.58;8.05;;;0.20;99.90;;;;;;6275203;22;20016;-76
2023/04/05 06:13:46;;;;;;;17.13;8.73;;;0.30;99.90;;;;;;6248868;22;20021;-77
2023/04/05 06:16:11;;;;;;;17.90;8.77;;;0.30;99.90;;;;;;6274612;22;20051;-77
2023/04/05 06:18:37;;;;;;;18.58;8.63;;;0.30;99.90;;;;;;6274119;22;20464;-77
2023/04/05 06:21:02;;;;;;;23.67;9.88;;;0.30;99.90;;;;;;6275995;22;20007;-77
2023/04/05 06:23:28;;;;;;;19.80;9.48;;;0.40;99.90;;;;;;6248637;22;20333;-77
2023/04/05 06:25:55;;;;;;;23.50;9.40;;;0.50;99.90;;;;;;6274203;22;20264;-78
2023/04/05 06:28:21;;;;;;;24.10;11.30;;;0.50;99.90;;;;;;6273822;22;20011;-77
2023/04/05 06:30:47;;;;;;;20.02;9.02;;;0.60;99.90;;;;;;6274108;22;20011;-76
2023/04/05 06:33:13;;;;;;;23.15;10.45;;;0.60;99.90;;;;;;6274332;22;20019;-77
2023/04/05 06:35:39;;;;;;;24.85;11.32;;;0.60;99.90;;;;;;6276014;22;20018;-77
2023/04/05 06:38:04;;;;;;;24.25;11.95;;;0.70;99.90;;;;;;6275615;22;20008;-77
2023/04/05 06:40:30;;;;;;;26.70;10.80;;;0.70;99.90;;;;;;6275887;22;20007;-79
2023/04/05 06:42:56;;;;;;;22.50;11.80;;;0.80;99.90;;;;;;6274682;22;20004;-76
2023/04/05 06:45:22;;;;;;;24.75;11.57;;;0.90;99.90;;;;;;6274480;22;20035;-78
2023/04/05 06:47:48;;;;;;;23.63;11.70;;;0.90;99.90;;;;;;6274526;22;20012;-77
2023/04/05 06:50:13;;;;;;;21.73;11.75;;;1.00;99.90;;;;;;6274140;22;20101;-77
2023/04/05 06:52:39;;;;;;;23.42;11.90;;;1.00;99.90;;;;;;6275755;22;20008;-76
2023/04/05 06:55:06;;;;;;;23.23;12.07;;;1.10;99.90;;;;;;6274606;22;20011;-78
2023/04/05 06:57:32;;;;;;;20.85;11.75;;;1.20;99.90;;;;;;6276044;22;20007;-76
2023/04/05 06:59:58;;;;;;;22.75;12.20;;;1.20;99.90;;;;;;6274436;22;20476;-77
2023/04/05 07:02:24;;;;;;;25.02;12.32;;;1.30;99.90;;;;;;6228818;22;1065448;-77
2023/04/05 07:04:50;;;;;;;25.42;13.10;;;1.30;99.90;;;;;;6277481;22;20337;-76
2023/04/05 07:07:16;;;;;;;24.83;12.45;;;1.40;99.90;;;;;;6275320;22;20047;-76
2023/04/05 07:09:42;;;;;;;28.02;12.57;;;1.50;99.90;;;;;;6275555;22;20027;-77
2023/04/05 07:12:08;;;;;;;27.85;13.38;;;1.60;99.90;;;;;;6276681;22;20015;-77
2023/04/05 07:14:35;;;;;;;22.85;12.55;;;1.60;99.90;;;;;;6275030;22;20090;-76
2023/04/05 07:17:05;;;;;;;21.58;12.43;;;1.80;99.90;;;;;;6276966;22;20003;-76
2023/04/05 07:19:31;;;;;;;27.73;13.95;;;1.90;99.90;;;;;;6276825;22;20012;-77
2023/04/05 07:21:58;;;;;;;28.38;12.63;;;2.00;99.90;;;;;;6275349;22;20059;-77
2023/04/05 07:24:24;;;;;;;27.15;13.48;;;2.10;99.90;;;;;;6249806;22;20047;-77
2023/04/05 07:26:50;;;;;;;27.83;12.73;;;2.10;99.90;;;;;;6277458;22;20008;-77
2023/04/05 07:29:15;;;;;;;21.75;12.68;;;2.20;99.90;;;;;;6275606;22;20016;-76
2023/04/05 07:31:41;;;;;;;24.80;12.45;;;2.30;99.90;;;;;;6275509;22;20011;-77
2023/04/05 07:34:07;;;;;;;26.27;12.60;;;2.40;99.90;;;;;;6277844;22;20011;-77
2023/04/05 07:36:32;;;;;;;23.85;13.52;;;2.40;99.90;;;;;;6275709;22;20460;-78
2023/04/05 07:38:58;;;;;;;25.55;14.60;;;2.50;99.90;;;;;;6275215;22;20015;-77
2023/04/05 07:41:25;;;;;;;20.88;12.57;;;2.60;99.90;;;;;;6276696;22;20038;-79
2023/04/05 07:43:51;;;;;;;24.92;14.20;;;2.70;99.90;;;;;;6277325;22;20352;-76
2023/04/05 07:46:17;;;;;;;24.67;13.52;;;2.70;99.90;;;;;;6275406;22;20015;-76
2023/04/05 07:48:45;;;;;;;25.55;13.38;;;2.80;99.90;;;;;;6275838;22;20018;-77
2023/04/05 07:51:11;;;;;;;21.33;13.32;;;2.90;99.90;;;;;;6276902;22;20004;-77
2023/04/05 07:53:37;;;;;;;23.00;12.50;;;3.10;99.90;;;;;;6274930;22;20007;-77
2023/04/05 07:56:07;;;;;;;25.48;13.05;;;3.20;99.90;;;;;;6275407;22;20014;-76
2023/04/05 07:58:34;;;;;;;23.55;13.57;;;3.30;99.90;;;;;;6275218;22;20008;-76
2023/04/05 08:01:03;;;;;;;21.60;13.02;;;3.40;99.90;;;;;;6274731;22;20016;-76
2023/04/05 08:03:30;;;;;;;21.67;13.13;;;3.40;99.90;;;;;;6274849;22;20054;-77
2023/04/05 08:05:56;;;;;;;22.40;12.70;;;3.60;99.90;;;;;;6274863;22;20107;-77
2023/04/05 08:08:24;;;;;;;20.00;11.65;;;3.70;99.90;;;;;;6274610;22;20011;-77
2023/04/05 08:10:50;;;;;;;21.23;11.98;;;3.80;99.90;;;;;;6274735;22;20023;-76
2023/04/05 08:13:15;;;;;;;20.55;11.35;;;3.90;99.90;;;;;;6274926;22;20024;-76
2023/04/05 08:15:41;;;;;;;22.63;11.68;;;4.10;99.90;;;;;;6276542;22;20043;-76
2023/04/05 08:18:07;;;;;;;19.25;10.90;;;4.20;99.90;;;;;;6276611;22;20490;-77
2023/04/05 08:20:37;;;;;;;19.13;11.00;;;4.30;99.90;;;;;;6276729;22;20384;-77
2023/04/05 08:23:06;;;;;;;18.15;10.55;;;4.40;99.90;;;;;;6275436;22;20125;-77
2023/04/05 08:25:32;;;;;;;19.85;11.05;;;4.40;99.90;;;;;;6278920;22;20049;-77
2023/04/05 08:27:58;;;;;;;18.70;10.65;;;4.50;99.90;;;;;;6276724;22;20016;-77
2023/04/05 08:30:23;;;;;;;15.60;9.75;;;4.60;99.90;;;;;;6278706;22;20310;-77
2023/04/05 08:32:49;;;;;;;17.33;9.50;;;4.70;99.90;;;;;;6250997;22;20008;-76
2023/04/05 08:35:15;;;;;;;14.88;9.73;;;4.80;99.90;;;;;;6276692;22;20016;-77
2023/04/05 08:37:40;;;;;;;18.30;9.18;;;5.00;99.90;;;;;;6277052;22;20035;-77
2023/04/05 08:40:07;;;;;;;18.10;9.63;;;5.10;99.90;;;;;;6276687;22;20433;-76
2023/04/05 08:42:36;;;;;;;14.40;8.18;;;5.30;99.90;;;;;;6251011;22;20007;-77
2023/04/05 08:45:08;;;;;;;16.00;8.95;;;6.20;99.90;;;;;;6276633;22;20012;-76
2023/04/05 08:47:36;;;;;;;14.80;8.63;;;6.90;99.90;;;;;;6276577;22;20040;-76
2023/04/05 08:50:03;;;;;;;14.65;9.05;;;7.40;99.90;;;;;;6278240;22;20018;-76
2023/04/05 08:52:30;;;;;;;15.25;8.50;;;7.60;99.90;;;;;;6276513;22;20015;-78
2023/04/05 08:54:56;;;;;;;17.45;8.02;;;7.90;99.90;;;;;;6251086;22;20413;-77
2023/04/05 08:57:28;;;;;;;13.35;7.40;;;8.40;99.90;;;;;;6276376;22;20021;-77
2023/04/05 08:59:56;;;;;;;14.38;7.75;;;8.80;99.90;;;;;;6278108;22;20491;-77
2023/04/05 09:02:23;;;;;;;13.45;7.20;;;9.20;99.90;;;;;;6276351;22;20015;-76
2023/04/05 09:04:50;;;;;;;15.65;7.05;;;9.40;99.90;;;;;;6277788;22;20008;-77
2023/04/05 09:07:16;;;;;;;14.23;7.80;;;9.20;99.90;;;;;;6278253;22;20024;-77
2023/04/05 09:09:47;;;;;;;12.27;6.10;;;8.90;99.90;;;;;;6276510;22;20083;-77
2023/04/05 09:12:13;;;;;;;12.90;6.65;;;8.70;99.90;;;;;;6276320;22;20050;-77
2023/04/05 09:14:39;;;;;;;11.95;6.97;;;9.10;99.90;;;;;;6277952;22;20007;-76
2023/04/05 09:17:05;;;;;;;11.00;5.93;;;9.90;99.90;;;;;;6276491;22;20012;-77
2023/04/05 09:19:31;;;;;;;17.33;6.15;;;10.60;99.90;;;;;;6278267;22;20008;-76
2023/04/05 09:22:00;;;;;;;11.38;5.78;;;11.30;99.90;;;;;;6278451;22;20089;-76
2023/04/05 09:24:40;;;;;;;10.45;7.07;;;11.80;99.90;;;;;;6276917;22;20019;-76
2023/04/05 09:27:07;;;;;;;9.02;5.60;;;11.80;99.90;;;;;;6278386;22;20042;-77
2023/04/05 09:29:33;;;;;;;11.52;6.30;;;11.40;99.90;;;;;;6276586;22;20134;-76
2023/04/05 09:32:01;;;;;;;10.57;6.38;;;10.70;99.90;;;;;;6250938;22;20008;-75
2023/04/05 09:34:30;;;;;;;11.70;6.00;;;10.40;99.90;;;;;;6250528;22;20015;-77
2023/04/05 09:36:55;;;;;;;10.35;6.00;;;10.60;99.90;;;;;;6275978;22;20158;-77
2023/04/05 09:39:31;;;;;;;9.30;5.93;;;10.40;99.90;;;;;;6277219;22;20433;-77
2023/04/05 09:42:23;;;;;;;;;;;10.10;99.90;;;;;;6276715;22;20020;-76
2023/04/05 09:45:00;;;;;;;11.40;5.82;;;10.10;99.90;;;;;;6271614;22;19918;-77
2023/04/05 09:47:31;;;;;;;10.18;5.97;;;10.40;99.90;;;;;;6277844;22;20521;-77
2023/04/05 09:49:58;;;;;;;10.00;5.93;;;10.60;99.90;;;;;;6250371;22;20091;-76
2023/04/05 09:52:28;;;;;;;10.93;6.53;;;10.80;99.90;;;;;;6278039;22;20373;-77
2023/04/05 09:54:55;;;;;;;9.05;5.90;;;10.90;99.90;;;;;;6277482;22;20011;-77
2023/04/05 09:57:26;;;;;;;10.68;5.85;;;10.90;99.90;;;;;;6275603;22;20052;-77
2023/04/05 09:59:52;;;;;;;10.98;5.88;;;10.90;99.90;;;;;;6250260;22;20091;-77
2023/04/05 10:02:18;;;;;;;11.73;5.60;;;10.90;99.90;;;;;;6275671;22;20011;-78
2023/04/05 10:04:47;;;;;;;9.23;5.40;;;10.80;99.90;;;;;;6274306;22;20015;-76
2023/04/05 10:07:17;;;;;;;9.85;6.78;;;10.80;99.90;;;;;;6275008;22;20011;-77
2023/04/05 10:09:46;;;;;;;9.02;5.82;;;10.70;99.90;;;;;;6275636;22;20046;-77
2023/04/05 10:12:23;;;;;;;10.75;6.40;;;10.60;99.90;;;;;;6275901;22;20016;-76
2023/04/05 10:14:48;;;;;;;9.43;5.68;;;10.40;99.90;;;;;;6277969;22;20023;-76
2023/04/05 10:17:48;;;;;;;13.35;6.05;;;10.40;99.90;;;;;;6278655;22;20015;-74
2023/04/05 10:20:19;;;;;;;10.45;6.00;;;10.40;99.90;;;;;;6250664;22;20026;-74
2023/04/05 10:22:47;;;;;;;10.20;6.00;;;10.60;99.90;;;;;;6275713;22;20106;-76
2023/04/05 10:25:24;;;;;;;12.93;5.85;;;10.70;99.90;;;;;;6277180;22;20334;-77
2023/04/05 10:27:57;;;;;;;10.30;5.25;;;10.70;99.90;;;;;;6277788;22;20068;-77
2023/04/05 10:30:28;;;;;;;9.70;5.75;;;10.80;99.90;;;;;;6277443;22;20012;-77
2023/04/05 10:33:27;;;;;;;10.45;5.75;;;10.90;99.90;;;;;;6276753;22;20485;-76
2023/04/05 10:36:15;;;;;;;12.85;5.80;;;11.00;99.80;;;;;;6275770;22;20039;-78
2023/04/05 10:38:52;;;;;;;15.75;7.38;;;11.10;99.90;;;;;;6275317;22;20042;-77
2023/04/05 10:41:18;;;;;;;12.25;5.50;;;11.30;99.30;;;;;;6277064;22;20030;-76
2023/04/05 10:43:45;;;;;;;12.48;5.65;;;11.40;99.90;;;;;;6275448;22;20016;-77
2023/04/05 10:46:17;;;;;;;9.88;5.65;;;11.40;99.80;;;;;;6275041;22;20464;-77
2023/04/05 10:49:17;;;;;;;12.20;5.78;;;11.50;99.90;;;;;;6275733;22;20022;-77
2023/04/05 10:51:44;;;;;;;7.43;4.93;;;11.60;99.10;;;;;;6276198;22;20072;-76
2023/04/05 10:54:10;;;;;;;10.27;6.00;;;11.60;98.40;;;;;;6275367;22;20012;-76
2023/04/05 10:56:37;;;;;;;9.18;5.55;;;11.70;97.60;;;;;;6275883;22;20011;-78
2023/04/05 10:59:04;;;;;;;9.95;5.45;;;11.80;97.90;;;;;;6276862;22;20467;-78
2023/04/05 11:01:30;;;;;;;10.48;5.63;;;11.80;97.10;;;;;;6276978;22;20004;-80
2023/04/05 11:04:16;;;;;;;10.27;5.70;;;12.00;96.80;;;;;;6275451;22;20086;-76
2023/04/05 11:06:42;;;;;;;11.20;6.45;;;12.10;95.40;;;;;;6275511;22;20097;-77
2023/04/05 11:09:19;;;;;;;10.02;5.53;;;12.20;95.80;;;;;;6276016;22;20023;-77
2023/04/05 11:11:50;;;;;;;9.77;5.32;;;12.20;95.60;;;;;;6275145;22;20011;-77
2023/04/05 11:14:27;;;;;;;11.32;5.70;;;12.30;95.00;;;;;;6275120;22;20061;-77
2023/04/05 11:16:56;;;;;;;7.68;5.20;;;12.40;94.30;;;;;;6275252;22;20047;-76
2023/04/05 11:19:41;;;;;;;10.80;5.30;;;12.50;94.40;;;;;;6275306;22;20015;-77
2023/04/05 11:27:28;;;;;;;11.25;5.45;;;12.80;92.00;;;;;;6221173;22;20059;-76
2023/04/05 11:29:55;;;;;;;8.65;4.90;;;12.80;91.20;;;;;;6245471;23;20094;-78
2023/04/05 11:32:21;;;;;;;10.25;5.13;;;12.80;91.80;;;;;;6219229;23;20016;-77
2023/04/05 11:35:06;;;;;;;9.15;4.60;;;12.90;91.70;;;;;;6219444;23;20349;-78
2023/04/05 11:37:59;;;;;;;9.75;5.25;;;13.10;89.80;;;;;;6246252;22;20054;-77
2023/04/05 11:40:29;;;;;;;7.53;4.25;;;13.10;88.40;;;;;;6246421;23;20162;-77
2023/04/05 11:43:06;;;;;;;10.23;5.10;;;13.20;90.80;;;;;;6219319;23;20012;-76
2023/04/05 11:45:33;;;;;;;9.75;5.28;;;13.30;90.40;;;;;;6245788;23;20410;-77
2023/04/05 11:48:05;;;;;;;8.57;4.88;;;13.40;90.10;;;;;;6246367;22;20019;-78
2023/04/05 11:50:31;;;;;;;9.52;5.25;;;13.40;87.30;;;;;;6219330;23;20020;-77
2023/04/05 11:53:18;;;;;;;7.65;4.78;;;13.40;88.30;;;;;;6218913;23;20023;-77
2023/04/05 11:55:50;;;;;;;9.07;4.80;;;13.50;86.90;;;;;;6218935;23;20016;-78
2023/04/05 11:58:22;;;;;;;9.48;5.03;;;13.30;85.00;;;;;;6246617;22;20012;-78
2023/04/05 12:00:59;;;;;;;8.18;4.60;;;13.30;85.40;;;;;;6196530;23;20023;-77
2023/04/05 12:03:27;;;;;;;11.10;4.78;;;13.40;82.90;;;;;;6248618;23;20066;-76
2023/04/05 12:05:54;;;;;;;9.18;4.85;;;13.60;84.90;;;;;;6248247;23;20066;-76
2023/04/05 12:08:21;;;;;;;9.15;4.95;;;13.80;84.50;;;;;;6248052;22;20016;-77
2023/04/05 12:11:00;;;;;;;11.48;5.25;;;13.70;83.80;;;;;;6220915;23;20016;-77
2023/04/05 12:13:31;;;;;;;9.20;5.40;;;13.70;78.30;;;;;;6248499;23;20023;-77
2023/04/05 12:16:01;;;;;;;7.60;5.00;;;13.70;81.00;;;;;;6247639;23;20079;-77
2023/04/05 12:18:29;;;;;;;8.60;4.97;;;13.80;82.80;;;;;;6247698;22;20012;-77
2023/04/05 12:20:55;;;;;;;10.15;4.60;;;13.80;80.90;;;;;;6220931;23;20369;-77
2023/04/05 12:23:21;;;;;;;7.68;4.93;;;13.80;80.60;;;;;;6221530;23;20058;-77
2023/04/05 12:25:48;;;;;;;8.60;5.07;;;13.80;78.10;;;;;;6221069;23;20055;-78
2023/04/05 12:28:13;;;;;;;7.60;4.70;;;13.80;79.70;;;;;;6220174;23;20023;-77
2023/04/05 12:30:53;;;;;;;8.45;4.70;;;13.90;79.60;;;;;;6247927;23;20012;-77
2023/04/05 12:33:32;;;;;;;12.13;4.55;;;14.10;79.40;;;;;;6247560;23;20084;-78
2023/04/05 12:36:04;;;;;;;7.18;4.07;;;14.10;75.00;;;;;;6220336;23;20038;-77
2023/04/05 12:38:30;;;;;;;7.55;4.80;;;14.30;78.20;;;;;;6247755;23;20012;-78
2023/04/05 12:41:00;;;;;;;13.30;5.10;;;14.30;79.30;;;;;;6220644;23;20334;-78
2023/04/05 12:43:37;;;;;;;8.40;4.32;;;14.30;79.30;;;;;;6247592;23;20004;-78
2023/04/05 12:46:09;;;;;;;7.93;4.72;;;14.60;77.70;;;;;;6220900;23;20012;-76
2023/04/05 12:48:36;;;;;;;7.53;4.70;;;14.80;80.10;;;;;;6247413;23;20517;-76
2023/04/05 12:51:13;;;;;;;8.45;4.85;;;14.90;80.10;;;;;;6219780;23;20023;-78
2023/04/05 12:53:44;;;;;;;8.38;4.50;;;15.10;78.10;;;;;;6246987;23;20016;-77
2023/04/05 12:56:10;;;;;;;9.60;5.05;;;15.10;77.30;;;;;;6219985;22;20060;-77
2023/04/05 12:58:37;;;;;;;8.50;4.43;;;15.10;79.30;;;;;;6246902;23;20039;-78
2023/04/05 13:01:03;;;;;;;8.73;4.60;;;15.20;79.00;;;;;;6220461;23;20013;-77
2023/04/05 13:03:29;;;;;;;7.65;4.35;;;15.20;77.60;;;;;;6247504;23;20083;-78
2023/04/05 13:05:55;;;;;;;7.38;4.43;;;15.20;76.60;;;;;;6195573;23;20012;-77
2023/04/05 13:08:20;;;;;;;8.52;4.75;;;15.20;76.10;;;;;;6220287;23;20055;-77
2023/04/05 13:10:47;;;;;;;8.70;5.03;;;15.20;75.40;;;;;;6220311;23;20441;-77
2023/04/05 13:13:15;;;;;;;7.97;4.35;;;15.10;74.90;;;;;;6247037;23;20008;-78
2023/04/05 13:15:41;;;;;;;7.85;4.88;;;15.00;74.50;;;;;;6220356;23;20018;-78
2023/04/05 13:18:07;;;;;;;10.60;4.80;;;15.10;74.40;;;;;;6247195;22;20385;-77
2023/04/05 13:20:33;;;;;;;9.98;4.68;;;15.20;73.90;;;;;;6246925;23;20016;-77
2023/04/05 13:22:59;;;;;;;6.43;4.50;;;15.30;74.30;;;;;;6246783;23;20016;-78
2023/04/05 13:25:24;;;;;;;10.10;5.15;;;15.60;74.80;;;;;;6246890;23;20046;-78
2023/04/05 13:27:50;;;;;;;9.40;4.70;;;15.80;74.50;;;;;;6247368;22;20012;-78
2023/04/05 13:30:17;;;;;;;8.15;4.25;;;15.80;74.20;;;;;;6247212;23;20004;-77
2023/04/05 13:32:43;;;;;;;8.23;4.93;;;15.90;73.40;;;;;;6195380;23;20062;-77
2023/04/05 13:35:09;;;;;;;7.32;4.97;;;15.90;71.90;;;;;;6246853;23;20004;-77
2023/04/05 13:37:35;;;;;;;6.68;4.35;;;16.00;71.50;;;;;;6246780;22;20042;-77
2023/04/05 13:40:00;;;;;;;7.28;4.93;;;16.10;70.80;;;;;;6247013;23;20004;-76
2023/04/05 13:42:26;;;;;;;9.85;4.78;;;16.20;69.70;;;;;;6220295;23;20008;-76
2023/04/05 13:44:52;;;;;;;7.30;4.55;;;16.30;68.70;;;;;;6219702;23;20020;-78
2023/04/05 13:47:18;;;;;;;7.32;4.60;;;16.30;68.30;;;;;;6220257;23;20016;-79
2023/04/05 13:49:44;;;;;;;6.95;4.40;;;16.50;67.60;;;;;;6246945;23;20445;-77
2023/04/05 13:52:10;;;;;;;10.93;5.22;;;16.70;67.70;;;;;;6246919;23;20066;-78
2023/04/05 13:54:36;;;;;;;9.13;5.03;;;16.70;67.20;;;;;;6246852;23;20009;-77
2023/04/05 13:57:01;;;;;;;9.68;4.97;;;16.60;66.20;;;;;;6246520;22;20012;-77
2023/04/05 13:59:27;;;;;;;8.63;4.75;;;16.40;67.10;;;;;;6219707;23;20012;-78
2023/04/05 14:01:53;;;;;;;7.95;4.72;;;16.30;67.20;;;;;;6246934;23;20023;-80
2023/04/05 14:04:19;;;;;;;6.53;4.38;;;16.20;66.90;;;;;;6220522;23;20012;-76
2023/04/05 14:06:45;;;;;;;8.90;4.80;;;16.20;67.00;;;;;;6246463;22;20315;-77
2023/04/05 14:09:11;;;;;;;8.38;4.82;;;16.30;67.40;;;;;;6219878;23;20016;-79
2023/04/05 14:11:37;;;;;;;7.53;4.65;;;16.30;66.50;;;;;;6219880;23;20078;-77
2023/04/05 14:14:03;;;;;;;8.93;4.85;;;16.20;66.10;;;;;;6219728;23;20016;-78
2023/04/05 14:16:29;;;;;;;9.45;4.63;;;16.30;66.00;;;;;;6246420;22;20015;-76
2023/04/05 14:18:55;;;;;;;7.68;4.70;;;16.40;65.50;;;;;;6219415;23;20038;-77
2023/04/05 14:21:20;;;;;;;7.47;4.95;;;16.50;65.20;;;;;;6219351;23;20012;-77
2023/04/05 14:23:49;;;;;;;7.40;4.55;;;16.50;65.10;;;;;;6219580;23;20016;-77
2023/04/05 14:26:15;;;;;;;5.95;4.07;;;16.50;64.70;;;;;;6219700;22;20012;-76
2023/04/05 14:28:41;;;;;;;6.82;4.40;;;16.50;64.50;;;;;;6219612;23;20127;-77
2023/04/05 14:31:06;;;;;;;7.97;4.75;;;16.60;63.90;;;;;;6245981;23;20446;-77
2023/04/05 14:33:32;;;;;;;7.90;4.45;;;16.70;63.50;;;;;;6219176;23;20016;-77
2023/04/05 14:35:57;;;;;;;8.82;5.00;;;16.80;64.20;;;;;;6246743;23;20051;-77
2023/04/05 14:38:23;;;;;;;7.20;4.80;;;16.80;64.40;;;;;;6219184;23;20083;-78
2023/04/05 14:40:49;;;;;;;8.32;4.32;;;16.70;64.30;;;;;;6219295;23;20453;-77
2023/04/05 14:43:15;;;;;;;8.18;4.93;;;16.70;64.50;;;;;;6219172;23;20083;-78
2023/04/05 14:45:40;;;;;;;7.78;5.13;;;16.60;64.20;;;;;;6219320;23;20019;-78
2023/04/05 14:48:06;;;;;;;10.70;5.03;;;16.50;63.80;;;;;;6245744;22;20071;-78
2023/04/05 14:50:32;;;;;;;11.27;5.30;;;16.70;64.20;;;;;;6246541;23;20330;-78
2023/04/05 14:52:58;;;;;;;6.47;4.80;;;16.40;63.20;;;;;;6219322;23;20119;-77
2023/04/05 14:55:24;;;;;;;9.85;4.70;;;16.40;63.40;;;;;;6218757;23;20009;-78
2023/04/05 14:57:50;;;;;;;9.63;5.22;;;16.20;63.30;;;;;;6246021;22;20321;-77
2023/04/05 15:00:16;;;;;;;6.57;4.65;;;16.20;62.80;;;;;;6218907;23;20020;-77
2023/04/05 15:02:43;;;;;;;7.43;4.93;;;16.20;63.10;;;;;;6194093;23;20012;-78
2023/04/05 15:05:09;;;;;;;6.47;4.80;;;16.20;63.50;;;;;;6219484;23;20012;-78
2023/04/05 15:07:35;;;;;;;8.50;4.93;;;16.30;64.40;;;;;;6219275;23;20014;-77
2023/04/05 15:10:00;;;;;;;6.10;4.32;;;16.40;64.70;;;;;;6219021;23;20420;-77
2023/04/05 15:12:26;;;;;;;7.60;4.65;;;16.40;63.50;;;;;;6246203;23;20084;-78
2023/04/05 15:14:53;;;;;;;7.53;4.93;;;16.40;63.30;;;;;;6218863;23;20012;-78
2023/04/05 15:17:20;;;;;;;7.18;4.40;;;16.30;62.90;;;;;;6245794;22;20013;-76
2023/04/05 15:19:45;;;;;;;8.10;4.97;;;16.30;62.10;;;;;;6218783;23;20016;-78
2023/04/05 15:22:11;;;;;;;7.28;4.88;;;16.40;62.00;;;;;;6218603;23;20023;-77
2023/04/05 15:24:39;;;;;;;8.48;5.28;;;16.40;61.40;;;;;;6218842;23;20093;-78
2023/04/05 15:27:05;;;;;;;9.00;5.40;;;16.40;61.00;;;;;;6218701;23;20386;-78
2023/04/05 15:29:31;;;;;;;7.78;5.32;;;16.40;61.50;;;;;;6218941;23;20027;-77
2023/04/05 15:31:58;;;;;;;8.65;5.40;;;16.60;61.70;;;;;;6193957;23;20042;-77
2023/04/05 15:34:24;;;;;;;12.63;6.18;;;16.50;61.10;;;;;;6220901;23;20342;-78
2023/04/05 15:36:50;;;;;;;9.77;5.95;;;16.60;60.80;;;;;;6247812;22;20016;-77
2023/04/05 15:39:17;;;;;;;13.02;6.65;;;16.50;60.30;;;;;;6196139;23;20012;-76
2023/04/05 15:41:42;;;;;;;10.32;6.28;;;16.50;60.00;;;;;;6222958;23;20019;-77
2023/04/05 15:44:08;;;;;;;11.10;5.80;;;16.10;59.60;;;;;;6248462;23;20383;-78
2023/04/05 15:46:34;;;;;;;10.85;6.38;;;16.00;60.00;;;;;;6221766;23;20028;-78
2023/04/05 15:49:00;;;;;;;11.35;6.35;;;16.00;60.00;;;;;;6221557;23;20515;-77
2023/04/05 15:51:26;;;;;;;10.82;4.90;;;15.80;59.90;;;;;;6221754;23;20020;-76
2023/04/05 15:53:51;;;;;;;9.68;5.55;;;15.90;60.30;;;;;;6221749;23;20454;-77